Ewell, United Kingdom
Current Conditions -  °F | °C
As of 5:50 PM on Friday 24 Oct 2014 (Local Time) from EGKB Reporting Station
Scattered Clouds Scattered Clouds  
Wind Chill: 59°   Ceiling: Unl
Heat Index: 59°   Visibility: 6mi
Dew Point: 55°   Wind: 8mph
Humidity: 88%   Direction: 210°SSW
Pressure: 29.91"   Gusts: NA
Location:  51.35°N, 0.25°W
Report Text: EGKB 241650Z 21007KT 9999 SCT009 15/13 Q1013
Loading
Personal Weather Stations






























Interactive Weather Map
Tropical Storm Tracking
New forecast layout! Learn more

10-Day Weather Forecast

Advertisements
Track Severe Weather on mobile